createdAt,value
2022-08-25T00:01:55.524Z,24.05
2022-08-25T00:04:23.059Z,23.81
2022-08-25T00:06:51.062Z,23.88
2022-08-25T00:09:20.925Z,23.96
2022-08-25T00:11:49.348Z,23.90
2022-08-25T00:14:18.193Z,23.74
2022-08-25T00:16:45.582Z,23.83
2022-08-25T00:19:15.403Z,23.83
2022-08-25T00:21:42.997Z,23.73
2022-08-25T00:24:10.474Z,23.50
2022-08-25T00:26:42.576Z,23.53
2022-08-25T00:29:10.188Z,23.57
2022-08-25T00:31:39.065Z,23.55
2022-08-25T00:34:11.175Z,23.44
2022-08-25T00:36:38.755Z,23.64
2022-08-25T00:39:06.617Z,23.65
2022-08-25T00:41:35.390Z,23.43
2022-08-25T00:44:04.681Z,23.60
2022-08-25T00:46:33.410Z,23.43
2022-08-25T00:49:02.461Z,23.35
2022-08-25T00:51:32.992Z,23.47
2022-08-25T00:54:00.885Z,23.33
2022-08-25T00:56:28.499Z,23.31
2022-08-25T00:58:57.129Z,23.20
2022-08-25T01:01:24.845Z,23.33
2022-08-25T01:03:52.514Z,23.27
2022-08-25T01:06:20.559Z,23.31
2022-08-25T01:08:48.025Z,23.33
2022-08-25T01:11:15.454Z,23.21
2022-08-25T01:13:45.335Z,23.35
2022-08-25T01:16:13.118Z,23.29
2022-08-25T01:19:00.675Z,23.30
2022-08-25T01:21:28.597Z,23.27
2022-08-25T01:23:58.346Z,23.17
2022-08-25T01:26:30.699Z,23.27
2022-08-25T01:29:17.636Z,23.13
2022-08-25T01:31:45.386Z,23.34
2022-08-25T01:34:13.109Z,23.22
2022-08-25T01:36:40.795Z,23.16
2022-08-25T01:39:08.160Z,23.21
2022-08-25T01:41:41.999Z,23.23
2022-08-25T01:44:12.361Z,23.22
2022-08-25T01:46:44.413Z,22.99
2022-08-25T01:49:11.868Z,23.06
2022-08-25T01:51:52.865Z,22.99
2022-08-25T01:54:20.339Z,22.94
2022-08-25T01:56:48.112Z,23.01
2022-08-25T01:59:16.845Z,23.21
2022-08-25T02:01:51.935Z,23.27
2022-08-25T02:04:29.602Z,22.92
2022-08-25T02:06:57.094Z,23.01
2022-08-25T02:09:24.930Z,23.04
2022-08-25T02:11:52.356Z,22.94
2022-08-25T02:14:20.179Z,22.79
2022-08-25T02:16:48.805Z,22.86
2022-08-25T02:19:16.644Z,22.81
2022-08-25T02:21:44.081Z,22.81
2022-08-25T02:24:12.192Z,22.69
2022-08-25T02:26:39.578Z,22.72
2022-08-25T02:29:07.596Z,22.74
2022-08-25T02:31:35.855Z,22.67
2022-08-25T02:34:03.641Z,22.74
2022-08-25T02:36:32.330Z,22.80
2022-08-25T02:38:59.919Z,22.66
2022-08-25T02:41:31.073Z,22.64
2022-08-25T02:43:59.444Z,22.60
2022-08-25T02:46:27.065Z,22.83
2022-08-25T02:48:55.403Z,22.68
2022-08-25T02:51:23.298Z,22.62
2022-08-25T02:53:50.785Z,22.76
2022-08-25T02:56:18.408Z,22.81
2022-08-25T02:58:46.087Z,22.83
2022-08-25T03:01:13.934Z,22.65
2022-08-25T03:03:42.186Z,22.95
2022-08-25T03:06:12.686Z,22.68
2022-08-25T03:08:40.329Z,22.69
2022-08-25T03:11:07.691Z,22.79
2022-08-25T03:13:35.436Z,22.64
2022-08-25T03:16:03.305Z,22.67
2022-08-25T03:18:32.113Z,22.67
2022-08-25T03:20:59.655Z,22.74
2022-08-25T03:23:27.129Z,22.75
2022-08-25T03:26:13.573Z,22.73
2022-08-25T03:28:41.844Z,22.95
2022-08-25T03:31:09.257Z,22.76
2022-08-25T03:33:37.010Z,22.79
2022-08-25T03:36:05.613Z,22.79
2022-08-25T03:38:33.659Z,22.73
2022-08-25T03:41:02.176Z,22.74
2022-08-25T03:43:29.770Z,22.80
2022-08-25T03:45:57.465Z,22.79
2022-08-25T03:48:25.202Z,23.12
2022-08-25T03:50:54.969Z,22.79
2022-08-25T03:53:22.709Z,23.12
2022-08-25T03:55:50.288Z,23.09
2022-08-25T03:58:18.287Z,22.94
2022-08-25T04:00:45.766Z,23.05
2022-08-25T04:03:13.249Z,22.91
2022-08-25T04:05:41.016Z,23.12
2022-08-25T04:08:09.369Z,23.05
2022-08-25T04:10:37.415Z,23.07
2022-08-25T04:13:06.295Z,22.88
2022-08-25T04:15:33.765Z,23.09
2022-08-25T04:18:01.365Z,22.97
2022-08-25T04:20:29.008Z,23.02
2022-08-25T04:22:56.512Z,23.09
2022-08-25T04:25:23.933Z,23.37
2022-08-25T04:27:51.616Z,23.40
2022-08-25T04:30:19.299Z,23.48
2022-08-25T04:32:48.426Z,23.49
2022-08-25T04:35:16.096Z,23.61
2022-08-25T04:37:43.599Z,23.56
2022-08-25T04:40:11.600Z,23.64
2022-08-25T04:42:40.165Z,23.58
2022-08-25T04:45:07.703Z,23.48
2022-08-25T04:47:39.426Z,23.61
2022-08-25T04:50:07.448Z,23.63
2022-08-25T04:52:35.173Z,23.67
2022-08-25T04:55:02.583Z,23.68
2022-08-25T04:57:30.330Z,23.77
2022-08-25T04:59:58.824Z,23.88
2022-08-25T05:02:26.271Z,23.80
2022-08-25T05:04:53.899Z,23.77
2022-08-25T05:07:21.406Z,23.82
2022-08-25T05:09:48.843Z,23.86
2022-08-25T05:12:20.469Z,23.84
2022-08-25T05:14:48.777Z,23.82
2022-08-25T05:17:18.184Z,23.97
2022-08-25T05:19:45.610Z,23.92
2022-08-25T05:22:13.111Z,24.16
2022-08-25T05:24:41.153Z,24.07
2022-08-25T05:27:11.119Z,23.96
2022-08-25T05:29:38.569Z,24.13
2022-08-25T05:32:06.177Z,24.26
2022-08-25T05:34:33.771Z,24.31
2022-08-25T05:37:10.398Z,24.50
2022-08-25T05:39:39.799Z,24.59
2022-08-25T05:42:07.472Z,24.62
2022-08-25T05:44:35.390Z,24.61
2022-08-25T05:47:02.848Z,24.66
2022-08-25T05:49:36.350Z,24.90
2022-08-25T05:52:18.262Z,24.83
2022-08-25T05:54:47.862Z,24.89
2022-08-25T05:57:15.282Z,25.01
2022-08-25T05:59:42.666Z,25.18
2022-08-25T06:02:28.702Z,25.06
2022-08-25T06:04:56.145Z,25.18
2022-08-25T06:07:23.644Z,25.34
2022-08-25T06:09:53.934Z,25.30
2022-08-25T06:12:21.881Z,25.38
2022-08-25T06:14:50.778Z,25.52
2022-08-25T06:17:18.242Z,25.77
2022-08-25T06:19:45.804Z,25.87
2022-08-25T06:22:13.210Z,25.85
2022-08-25T06:24:40.749Z,25.89
2022-08-25T06:27:08.232Z,26.17
2022-08-25T06:29:36.156Z,26.28
2022-08-25T06:32:05.735Z,26.37
2022-08-25T06:34:33.894Z,26.42
2022-08-25T06:37:01.362Z,26.41
2022-08-25T06:39:29.026Z,26.51
2022-08-25T06:41:56.921Z,26.56
2022-08-25T06:44:27.759Z,26.72
2022-08-25T06:46:55.487Z,26.65
2022-08-25T06:49:23.302Z,26.81
2022-08-25T06:51:50.785Z,26.99
2022-08-25T06:54:18.180Z,27.01
2022-08-25T06:56:45.646Z,27.19
2022-08-25T06:59:13.491Z,27.39
2022-08-25T07:01:41.339Z,27.45
2022-08-25T07:04:12.738Z,29.24
2022-08-25T07:06:40.931Z,31.02
2022-08-25T07:09:08.599Z,31.65
2022-08-25T07:11:36.659Z,32.03
2022-08-25T07:14:04.899Z,31.90
2022-08-25T07:16:33.014Z,32.62
2022-08-25T07:19:00.623Z,32.89
2022-08-25T07:21:32.609Z,33.53
2022-08-25T07:24:01.736Z,35.02
2022-08-25T07:26:38.808Z,35.69
2022-08-25T07:29:10.924Z,36.78
2022-08-25T07:31:38.446Z,37.25
2022-08-25T07:34:25.569Z,37.37
2022-08-25T07:36:54.215Z,37.07
2022-08-25T07:39:22.777Z,37.41
2022-08-25T07:41:51.772Z,37.69
2022-08-25T07:44:20.586Z,37.95
2022-08-25T07:46:48.696Z,37.74
2022-08-25T07:49:23.370Z,38.33
2022-08-25T07:52:05.360Z,38.68
2022-08-25T07:54:35.314Z,38.42
2022-08-25T07:57:04.041Z,38.78
2022-08-25T07:59:39.018Z,38.95
2022-08-25T08:02:08.325Z,38.81
2022-08-25T08:04:36.576Z,38.69
2022-08-25T08:07:04.184Z,39.59
2022-08-25T08:09:31.644Z,39.98
2022-08-25T08:11:58.980Z,39.37
2022-08-25T08:14:26.397Z,39.58
2022-08-25T08:16:54.190Z,40.01
2022-08-25T08:19:23.121Z,39.81
2022-08-25T08:21:52.298Z,38.92
2022-08-25T08:24:40.640Z,39.20
2022-08-25T08:27:09.332Z,39.86
2022-08-25T08:29:36.927Z,39.58
2022-08-25T08:32:05.056Z,39.78
2022-08-25T08:34:33.532Z,39.73
2022-08-25T08:37:00.954Z,39.86
2022-08-25T08:39:28.812Z,39.40
2022-08-25T08:42:16.787Z,39.69
2022-08-25T08:44:46.249Z,39.87
2022-08-25T08:47:32.303Z,39.73
2022-08-25T08:50:06.320Z,39.70
2022-08-25T08:52:54.030Z,40.43
2022-08-25T08:55:24.924Z,39.57
2022-08-25T08:57:55.749Z,38.90
2022-08-25T09:00:23.248Z,38.91
2022-08-25T09:02:57.848Z,39.14
2022-08-25T09:05:26.916Z,38.55
2022-08-25T09:07:56.882Z,38.54
2022-08-25T09:10:24.725Z,38.84
2022-08-25T09:12:55.479Z,38.61
2022-08-25T09:15:46.245Z,38.52
2022-08-25T09:18:18.892Z,38.75
2022-08-25T09:20:51.513Z,38.64
2022-08-25T09:23:22.895Z,38.52
2022-08-25T09:25:54.037Z,38.30
2022-08-25T09:28:49.759Z,38.15
2022-08-25T09:31:25.272Z,38.03
2022-08-25T09:33:55.708Z,37.64
2022-08-25T09:36:23.615Z,37.50
2022-08-25T09:38:51.034Z,37.20
2022-08-25T09:41:19.480Z,37.53
2022-08-25T09:43:52.707Z,37.25
2022-08-25T09:46:27.615Z,37.21
2022-08-25T09:48:56.692Z,37.04
2022-08-25T09:51:24.627Z,36.73
2022-08-25T09:53:54.070Z,36.89
2022-08-25T09:56:22.347Z,37.23
2022-08-25T09:58:49.916Z,37.44
2022-08-25T10:01:18.570Z,38.02
2022-08-25T10:04:04.327Z,38.14
2022-08-25T10:06:37.687Z,38.18
2022-08-25T10:09:06.642Z,38.28
2022-08-25T10:11:37.553Z,38.10
2022-08-25T10:14:15.736Z,37.72
2022-08-25T10:16:46.821Z,38.17
2022-08-25T10:19:23.781Z,38.36
2022-08-25T10:22:03.423Z,38.13
2022-08-25T10:24:32.556Z,38.41
2022-08-25T10:27:09.803Z,38.41
2022-08-25T10:29:55.745Z,38.08
2022-08-25T10:32:38.582Z,38.04
2022-08-25T10:35:19.128Z,38.13
2022-08-25T10:38:05.169Z,38.27
2022-08-25T10:40:52.543Z,38.39
2022-08-25T10:43:25.006Z,38.34
2022-08-25T10:45:55.303Z,38.14
2022-08-25T10:48:44.997Z,37.63
2022-08-25T10:51:18.676Z,37.31
2022-08-25T10:53:49.895Z,37.49
2022-08-25T10:56:18.071Z,37.78
2022-08-25T10:59:04.902Z,37.52
2022-08-25T11:01:53.545Z,37.10
2022-08-25T11:04:27.333Z,37.40
2022-08-25T11:07:03.603Z,37.51
2022-08-25T11:09:33.911Z,37.33
2022-08-25T11:12:09.637Z,37.27
2022-08-25T11:14:40.247Z,37.18
2022-08-25T11:17:12.790Z,37.52
2022-08-25T11:19:59.826Z,37.86
2022-08-25T11:22:27.506Z,37.65
2022-08-25T11:25:13.402Z,37.42
2022-08-25T11:27:51.507Z,37.51
2022-08-25T11:30:19.573Z,37.74
2022-08-25T11:32:47.754Z,38.11
2022-08-25T11:35:16.559Z,38.07
2022-08-25T11:38:07.722Z,38.07
2022-08-25T11:40:38.666Z,37.70
2022-08-25T11:43:11.971Z,37.61
2022-08-25T11:45:45.982Z,37.86
2022-08-25T11:48:18.370Z,37.46
2022-08-25T11:51:12.528Z,37.01
2022-08-25T11:53:42.134Z,37.24
2022-08-25T11:56:10.863Z,37.37
2022-08-25T11:58:53.905Z,37.40
2022-08-25T12:01:44.601Z,37.48
2022-08-25T12:04:16.232Z,37.30
2022-08-25T12:07:02.448Z,37.13
2022-08-25T12:09:30.327Z,37.07
2022-08-25T12:11:58.442Z,37.18
2022-08-25T12:14:28.118Z,37.21
2022-08-25T12:16:56.465Z,37.01
2022-08-25T12:19:24.974Z,37.17
2022-08-25T12:21:56.277Z,37.32
2022-08-25T12:24:47.778Z,37.29
2022-08-25T12:27:25.127Z,37.31
2022-08-25T12:30:05.762Z,37.59
2022-08-25T12:32:37.872Z,37.97
2022-08-25T12:35:17.372Z,37.42
2022-08-25T12:37:58.421Z,37.86
2022-08-25T12:40:31.824Z,38.02
2022-08-25T12:43:04.160Z,37.61
2022-08-25T12:45:35.341Z,37.44
2022-08-25T12:48:21.682Z,37.72
2022-08-25T12:50:50.567Z,37.91
2022-08-25T12:53:17.980Z,37.66
2022-08-25T12:55:50.139Z,38.29
2022-08-25T12:58:18.221Z,38.10
2022-08-25T13:00:45.755Z,37.40
2022-08-25T13:03:21.877Z,37.86
2022-08-25T13:05:58.590Z,38.20
2022-08-25T13:08:47.962Z,38.69
2022-08-25T13:11:20.392Z,38.20
2022-08-25T13:13:51.754Z,38.17
2022-08-25T13:16:20.358Z,38.15
2022-08-25T13:18:51.662Z,37.65
2022-08-25T13:21:19.295Z,37.90
2022-08-25T13:23:48.989Z,36.23
2022-08-25T13:26:17.496Z,35.48
2022-08-25T13:28:50.480Z,34.52
2022-08-25T13:31:19.153Z,34.71
2022-08-25T13:33:54.737Z,34.70
2022-08-25T13:36:45.228Z,34.27
2022-08-25T13:39:45.717Z,34.40
2022-08-25T13:42:15.493Z,34.43
2022-08-25T13:44:51.654Z,33.80
2022-08-25T13:47:32.288Z,33.96
2022-08-25T13:50:18.304Z,34.08
2022-08-25T13:52:51.699Z,34.33
2022-08-25T13:55:28.543Z,33.67
2022-08-25T13:57:59.012Z,34.09
2022-08-25T14:00:32.431Z,34.23
2022-08-25T14:03:02.161Z,33.93
2022-08-25T14:05:41.408Z,33.80
2022-08-25T14:08:28.454Z,34.09
2022-08-25T14:11:03.513Z,33.87
2022-08-25T14:13:32.773Z,33.38
2022-08-25T14:16:07.814Z,33.88
2022-08-25T14:18:35.421Z,34.32
2022-08-25T14:21:04.121Z,33.43
2022-08-25T14:23:32.238Z,33.20
2022-08-25T14:25:59.810Z,33.14
2022-08-25T14:28:29.172Z,33.03
2022-08-25T14:30:57.240Z,32.92
2022-08-25T14:33:28.896Z,32.94
2022-08-25T14:35:58.258Z,33.02
2022-08-25T14:38:25.971Z,32.86
2022-08-25T14:40:53.656Z,32.92
2022-08-25T14:43:24.114Z,32.91
2022-08-25T14:46:00.027Z,32.71
2022-08-25T14:48:31.638Z,32.60
2022-08-25T14:50:59.147Z,32.65
2022-08-25T14:53:26.996Z,32.52
2022-08-25T14:55:59.110Z,32.54
2022-08-25T14:58:27.575Z,32.58
2022-08-25T15:01:01.392Z,32.25
2022-08-25T15:03:34.429Z,32.38
2022-08-25T15:06:02.799Z,32.38
2022-08-25T15:08:50.429Z,32.21
2022-08-25T15:11:17.995Z,32.25
2022-08-25T15:13:49.375Z,32.29
2022-08-25T15:16:33.968Z,32.18
2022-08-25T15:19:06.813Z,32.15
2022-08-25T15:21:35.692Z,32.11
2022-08-25T15:24:04.541Z,32.20
2022-08-25T15:26:33.918Z,32.19
2022-08-25T15:29:01.923Z,32.22
2022-08-25T15:31:29.601Z,32.09
2022-08-25T15:33:57.185Z,31.87
2022-08-25T15:36:24.865Z,31.83
2022-08-25T15:38:53.135Z,31.77
2022-08-25T15:41:22.547Z,31.55
2022-08-25T15:43:54.924Z,31.70
2022-08-25T15:46:24.294Z,31.64
2022-08-25T15:48:52.040Z,31.47
2022-08-25T15:51:19.495Z,31.33
2022-08-25T15:53:46.893Z,31.19
2022-08-25T15:56:26.369Z,31.35
2022-08-25T15:58:55.641Z,31.21
2022-08-25T16:01:24.771Z,31.16
2022-08-25T16:03:52.645Z,34.17
2022-08-25T16:06:20.242Z,35.65
2022-08-25T16:08:48.432Z,36.03
2022-08-25T16:11:19.928Z,36.16
2022-08-25T16:13:49.072Z,35.43
2022-08-25T16:16:18.293Z,35.67
2022-08-25T16:18:46.116Z,35.52
2022-08-25T16:21:17.400Z,35.24
2022-08-25T16:23:45.676Z,35.29
2022-08-25T16:26:13.201Z,35.23
2022-08-25T16:28:43.723Z,35.06
2022-08-25T16:31:12.399Z,35.04
2022-08-25T16:36:07.997Z,34.76
2022-08-25T16:38:36.698Z,34.42
2022-08-25T16:41:11.345Z,34.56
2022-08-25T16:43:39.941Z,34.21
2022-08-25T16:46:08.255Z,34.35
2022-08-25T16:48:36.180Z,34.19
2022-08-25T16:51:09.112Z,34.16
2022-08-25T16:53:55.092Z,34.01
2022-08-25T16:56:24.973Z,33.98
2022-08-25T16:58:55.580Z,33.95
2022-08-25T17:01:25.447Z,33.80
2022-08-25T17:03:53.601Z,33.72
2022-08-25T17:06:21.137Z,33.94
2022-08-25T17:08:50.979Z,33.75
2022-08-25T17:11:22.544Z,33.90
2022-08-25T17:13:51.216Z,33.75
2022-08-25T17:16:20.271Z,33.53
2022-08-25T17:18:48.183Z,33.47
2022-08-25T17:21:24.473Z,33.56
2022-08-25T17:23:53.376Z,33.29
2022-08-25T17:26:28.051Z,33.15
2022-08-25T17:28:57.252Z,33.02
2022-08-25T17:31:27.088Z,33.30
2022-08-25T17:33:56.364Z,33.44
2022-08-25T17:36:26.867Z,33.18
2022-08-25T17:38:55.380Z,33.04
2022-08-25T17:41:24.595Z,32.77
2022-08-25T17:43:52.373Z,32.86
2022-08-25T17:46:21.182Z,32.97
2022-08-25T17:48:48.568Z,32.78
2022-08-25T17:51:16.435Z,33.06
2022-08-25T17:53:43.961Z,32.74
2022-08-25T17:56:14.141Z,32.58
2022-08-25T17:58:41.822Z,32.61
2022-08-25T18:01:14.957Z,33.06
2022-08-25T18:03:43.619Z,32.77
2022-08-25T18:06:12.259Z,32.70
2022-08-25T18:08:43.037Z,32.76
2022-08-25T18:11:10.826Z,33.04
2022-08-25T18:13:38.940Z,33.18
2022-08-25T18:16:07.585Z,33.33
2022-08-25T18:18:37.002Z,32.75
2022-08-25T18:21:05.240Z,33.17
2022-08-25T18:23:34.349Z,33.07
2022-08-25T18:26:02.721Z,32.86
2022-08-25T18:28:30.344Z,32.63
2022-08-25T18:30:57.867Z,32.64
2022-08-25T18:33:25.716Z,32.39
2022-08-25T18:35:58.086Z,32.30
2022-08-25T18:38:44.499Z,32.19
2022-08-25T18:41:13.505Z,32.38
2022-08-25T18:43:41.838Z,32.45
2022-08-25T18:46:10.100Z,32.32
2022-08-25T18:48:37.738Z,31.16
2022-08-25T18:51:05.695Z,30.38
2022-08-25T18:53:37.107Z,29.79
2022-08-25T18:56:18.211Z,29.49
2022-08-25T18:58:47.201Z,29.21
2022-08-25T19:01:17.788Z,29.09
2022-08-25T19:03:46.502Z,28.92
2022-08-25T19:06:14.086Z,28.81
2022-08-25T19:08:42.419Z,28.67
2022-08-25T19:11:11.443Z,29.03
2022-08-25T19:13:40.313Z,29.53
2022-08-25T19:16:09.905Z,29.77
2022-08-25T19:18:39.158Z,29.21
2022-08-25T19:21:07.523Z,28.78
2022-08-25T19:23:39.000Z,28.43
2022-08-25T19:26:07.946Z,28.48
2022-08-25T19:28:41.295Z,28.23
2022-08-25T19:31:13.614Z,28.18
2022-08-25T19:33:44.797Z,28.06
2022-08-25T19:36:13.086Z,27.88
2022-08-25T19:38:40.510Z,27.97
2022-08-25T19:41:10.403Z,27.97
2022-08-25T19:43:56.249Z,28.01
2022-08-25T19:46:26.185Z,27.81
2022-08-25T19:49:09.099Z,27.76
2022-08-25T19:51:37.940Z,27.80
2022-08-25T19:54:05.845Z,27.75
2022-08-25T19:56:36.398Z,27.70
2022-08-25T19:59:04.457Z,27.65
2022-08-25T20:01:32.441Z,27.61
2022-08-25T20:04:03.682Z,27.74
2022-08-25T20:06:31.622Z,27.64
2022-08-25T20:09:00.659Z,27.49
2022-08-25T20:11:28.543Z,27.60
2022-08-25T20:13:58.123Z,27.53
2022-08-25T20:16:28.498Z,27.41
2022-08-25T20:18:55.988Z,27.49
2022-08-25T20:21:24.834Z,27.26
2022-08-25T20:24:10.978Z,27.39
2022-08-25T20:26:38.575Z,27.34
2022-08-25T20:29:08.270Z,27.25
2022-08-25T20:31:35.726Z,27.13
2022-08-25T20:34:03.308Z,27.15
2022-08-25T20:36:31.592Z,26.96
2022-08-25T20:38:59.284Z,27.12
2022-08-25T20:41:26.831Z,26.87
2022-08-25T20:43:54.465Z,26.89
2022-08-25T20:46:23.018Z,26.88
2022-08-25T20:48:50.736Z,26.97
2022-08-25T20:51:20.090Z,26.78
2022-08-25T20:53:51.957Z,26.74
2022-08-25T20:56:19.441Z,26.85
2022-08-25T20:58:47.789Z,26.88
2022-08-25T21:01:22.884Z,26.76
2022-08-25T21:03:50.631Z,26.95
2022-08-25T21:06:18.299Z,27.00
2022-08-25T21:08:47.023Z,26.73
2022-08-25T21:11:18.041Z,26.74
2022-08-25T21:13:48.626Z,26.78
2022-08-25T21:16:18.026Z,26.86
2022-08-25T21:18:48.030Z,26.73
2022-08-25T21:21:16.669Z,26.72
2022-08-25T21:23:45.011Z,26.72
2022-08-25T21:26:16.386Z,26.67
2022-08-25T21:28:47.532Z,26.52
2022-08-25T21:31:16.264Z,26.54
2022-08-25T21:33:46.212Z,26.46
2022-08-25T21:36:21.187Z,26.41
2022-08-25T21:38:48.992Z,26.30
2022-08-25T21:41:17.207Z,26.48
2022-08-25T21:43:45.200Z,26.31
2022-08-25T21:46:17.107Z,26.28
2022-08-25T21:48:46.849Z,26.30
2022-08-25T21:51:15.614Z,26.44
2022-08-25T21:53:43.150Z,26.43
2022-08-25T21:56:16.054Z,26.35
2022-08-25T21:58:45.375Z,26.35
2022-08-25T22:01:17.806Z,26.24
2022-08-25T22:03:47.201Z,26.23
2022-08-25T22:06:16.426Z,26.09
2022-08-25T22:08:43.939Z,26.01
2022-08-25T22:11:11.494Z,26.21
2022-08-25T22:13:41.246Z,26.02
2022-08-25T22:16:11.993Z,26.03
2022-08-25T22:18:39.915Z,26.06
2022-08-25T22:21:09.881Z,25.95
2022-08-25T22:23:44.261Z,25.94
2022-08-25T22:26:12.588Z,26.07
2022-08-25T22:28:42.707Z,26.04
2022-08-25T22:31:13.964Z,25.98
2022-08-25T22:33:48.477Z,25.88
2022-08-25T22:36:24.784Z,25.79
2022-08-25T22:38:52.840Z,25.87
2022-08-25T22:41:21.564Z,25.92
2022-08-25T22:43:49.556Z,26.09
2022-08-25T22:46:19.067Z,25.98
2022-08-25T22:48:46.494Z,26.04
2022-08-25T22:51:19.524Z,25.93
2022-08-25T22:53:47.129Z,25.83
2022-08-25T22:56:17.169Z,25.89
2022-08-25T22:58:51.829Z,25.92
2022-08-25T23:01:19.808Z,25.84
2022-08-25T23:03:47.633Z,25.74
2022-08-25T23:06:19.674Z,25.85
2022-08-25T23:08:49.707Z,25.96
2022-08-25T23:11:17.322Z,25.65
2022-08-25T23:13:45.075Z,26.03
2022-08-25T23:16:14.701Z,25.99
2022-08-25T23:18:43.898Z,25.86
2022-08-25T23:21:34.998Z,25.91
2022-08-25T23:24:02.820Z,25.80
2022-08-25T23:26:31.902Z,25.70
2022-08-25T23:28:59.360Z,25.82
2022-08-25T23:31:26.816Z,25.76
2022-08-25T23:33:56.532Z,25.68
2022-08-25T23:36:24.012Z,25.72
2022-08-25T23:38:51.960Z,25.67
2022-08-25T23:41:20.405Z,25.60
2022-08-25T23:43:48.900Z,25.62
2022-08-25T23:46:17.188Z,25.42
2022-08-25T23:48:44.704Z,25.51
2022-08-25T23:51:12.880Z,25.54
2022-08-25T23:53:40.246Z,25.54
2022-08-25T23:56:07.726Z,25.57
2022-08-25T23:58:36.029Z,25.57
